Terminal Aerodrome Forecast
Issued by NWS

Home | Current Version | Previous Version | Graphics & Text | Print | Product List | Glossary On
Versions: 1 2 3 4 5 6 7 8 9 10 11 12 13 14 15 16
000
FTUS43 KMPX 211100
TAFRNH
TAF
KRNH 211140Z 2112/2212 15010KT 4SM BR OVC006
     FM211500 15012KT 2SM -SN BR OVC004
     FM212100 14013KT 5SM BR OVC008
     FM220500 14013KT 3SM -DZ BR OVC004=

USA.gov is the U.S. government's official web portal to all federal, state and local government web resources and services.